createdAt,value
2023-05-01T00:00:21.397Z,64.55
2023-05-01T00:03:50.043Z,64.10
2023-05-01T00:06:54.698Z,63.54
2023-05-01T00:09:59.269Z,62.82
2023-05-01T00:13:03.882Z,62.16
2023-05-01T00:16:12.664Z,62.07
2023-05-01T00:19:18.773Z,61.98
2023-05-01T00:22:22.799Z,61.67
2023-05-01T00:25:27.093Z,61.91
2023-05-01T00:28:31.460Z,62.32
2023-05-01T00:31:36.497Z,63.03
2023-05-01T00:34:40.692Z,63.50
2023-05-01T00:37:44.923Z,63.60
2023-05-01T00:40:48.937Z,63.84
2023-05-01T00:43:52.968Z,63.63
2023-05-01T00:47:00.245Z,64.14
2023-05-01T00:50:05.228Z,63.93
2023-05-01T00:53:09.312Z,64.13
2023-05-01T00:56:15.136Z,64.54
2023-05-01T00:59:19.492Z,64.44
2023-05-01T01:02:23.909Z,64.44
2023-05-01T01:05:32.834Z,64.61
2023-05-01T01:09:08.043Z,64.79
2023-05-01T01:12:35.635Z,65.14
2023-05-01T01:16:23.133Z,63.97
2023-05-01T01:19:39.671Z,63.48
2023-05-01T01:22:49.762Z,63.94
2023-05-01T01:26:11.898Z,64.46
2023-05-01T01:29:48.478Z,65.05
2023-05-01T01:33:10.106Z,64.48
2023-05-01T01:36:23.343Z,64.53
2023-05-01T01:39:30.081Z,64.52
2023-05-01T01:42:49.599Z,65.06
2023-05-01T01:46:02.345Z,65.24
2023-05-01T01:49:09.418Z,65.04
2023-05-01T01:52:17.220Z,65.20
2023-05-01T01:55:27.705Z,64.93
2023-05-01T01:58:32.202Z,65.06
2023-05-01T02:01:39.667Z,65.13
2023-05-01T02:04:45.760Z,65.58
2023-05-01T02:07:51.554Z,65.57
2023-05-01T02:11:01.829Z,65.52
2023-05-01T02:14:08.883Z,65.72
2023-05-01T02:17:16.495Z,65.71
2023-05-01T02:20:22.729Z,66.15
2023-05-01T02:23:28.694Z,65.92
2023-05-01T02:26:40.205Z,65.78
2023-05-01T02:29:44.459Z,66.00
2023-05-01T02:32:48.754Z,65.79
2023-05-01T02:35:53.078Z,66.25
2023-05-01T02:38:57.102Z,66.30
2023-05-01T02:42:05.601Z,66.27
2023-05-01T02:45:15.960Z,65.77
2023-05-01T02:48:28.130Z,65.77
2023-05-01T02:51:32.766Z,66.08
2023-05-01T02:54:36.717Z,66.19
2023-05-01T02:57:41.767Z,66.18
2023-05-01T03:00:47.248Z,66.20
2023-05-01T03:03:51.856Z,66.09
2023-05-01T03:06:57.064Z,66.41
2023-05-01T03:10:04.984Z,66.91
2023-05-01T03:13:10.975Z,66.87
2023-05-01T03:16:15.012Z,66.74
2023-05-01T03:19:19.033Z,66.83
2023-05-01T03:22:23.000Z,66.93
2023-05-01T03:25:27.597Z,67.13
2023-05-01T03:28:31.646Z,67.13
2023-05-01T03:31:35.771Z,66.85
2023-05-01T03:34:40.094Z,66.89
2023-05-01T03:37:44.518Z,66.70
2023-05-01T03:40:50.466Z,67.09
2023-05-01T03:44:13.207Z,67.31
2023-05-01T03:47:19.695Z,67.25
2023-05-01T03:50:23.712Z,67.46
2023-05-01T03:53:28.036Z,67.70
2023-05-01T03:56:35.794Z,67.83
2023-05-01T03:59:40.418Z,67.87
2023-05-01T04:02:44.569Z,68.13
2023-05-01T04:05:52.998Z,68.41
2023-05-01T04:08:57.028Z,68.27
2023-05-01T04:12:02.773Z,68.30
2023-05-01T04:15:08.576Z,68.44
2023-05-01T04:18:13.020Z,68.26
2023-05-01T04:21:18.962Z,68.44
2023-05-01T04:24:25.717Z,68.49
2023-05-01T04:27:31.772Z,68.51
2023-05-01T04:30:36.756Z,68.55
2023-05-01T04:33:40.713Z,68.56
2023-05-01T04:36:44.912Z,68.69
2023-05-01T04:39:49.384Z,68.57
2023-05-01T04:42:54.507Z,68.63
2023-05-01T04:45:59.119Z,68.43
2023-05-01T04:49:03.172Z,68.51
2023-05-01T04:52:07.081Z,68.46
2023-05-01T04:55:22.651Z,68.51
2023-05-01T04:58:56.253Z,67.14
2023-05-01T05:02:02.442Z,65.93
2023-05-01T05:05:07.084Z,66.40
2023-05-01T05:08:11.039Z,66.16
2023-05-01T05:11:17.033Z,64.79
2023-05-01T05:14:34.871Z,63.26
2023-05-01T05:17:38.884Z,62.44
2023-05-01T05:20:43.009Z,62.17
2023-05-01T05:23:47.215Z,61.84
2023-05-01T05:26:51.464Z,61.08
2023-05-01T05:29:55.649Z,60.71
2023-05-01T05:33:00.223Z,60.29
2023-05-01T05:36:04.460Z,60.02
2023-05-01T05:39:13.453Z,59.27
2023-05-01T05:42:17.469Z,59.30
2023-05-01T05:45:21.695Z,58.87
2023-05-01T05:48:26.467Z,58.71
2023-05-01T05:51:30.703Z,57.87
2023-05-01T05:54:34.864Z,57.02
2023-05-01T05:57:38.796Z,55.97
2023-05-01T06:00:43.413Z,55.50
2023-05-01T06:03:47.430Z,54.79
2023-05-01T06:06:52.189Z,54.75
2023-05-01T06:10:01.740Z,53.26
2023-05-01T06:13:10.523Z,51.90
2023-05-01T06:16:19.723Z,52.08
2023-05-01T06:19:23.886Z,51.44
2023-05-01T06:22:30.545Z,50.84
2023-05-01T06:25:42.859Z,49.87
2023-05-01T06:28:47.046Z,50.37
2023-05-01T06:31:51.044Z,50.15
2023-05-01T06:34:55.253Z,49.95
2023-05-01T06:38:00.326Z,49.46
2023-05-01T06:41:05.490Z,48.94
2023-05-01T06:44:09.390Z,48.69
2023-05-01T06:47:15.406Z,47.85
2023-05-01T06:50:19.707Z,47.78
2023-05-01T06:53:23.721Z,47.91
2023-05-01T06:56:27.858Z,47.84
2023-05-01T06:59:31.801Z,47.45
2023-05-01T07:02:38.293Z,47.30
2023-05-01T07:05:42.550Z,47.10
2023-05-01T07:08:46.567Z,46.55
2023-05-01T07:11:50.584Z,46.87
2023-05-01T07:14:54.608Z,46.54
2023-05-01T07:17:58.632Z,46.36
2023-05-01T07:21:02.776Z,46.25
2023-05-01T07:24:06.961Z,46.33
2023-05-01T07:27:10.973Z,46.70
2023-05-01T07:30:15.202Z,46.50
2023-05-01T07:33:19.296Z,46.49
2023-05-01T07:36:24.410Z,45.59
2023-05-01T07:39:28.567Z,44.95
2023-05-01T07:42:32.587Z,44.52
2023-05-01T07:45:37.701Z,44.47
2023-05-01T07:48:41.797Z,44.50
2023-05-01T07:51:46.182Z,44.51
2023-05-01T07:54:51.212Z,44.35
2023-05-01T07:57:55.225Z,43.80
2023-05-01T08:00:59.334Z,44.01
2023-05-01T08:04:03.454Z,43.34
2023-05-01T08:07:07.677Z,43.28
2023-05-01T08:10:11.694Z,43.24
2023-05-01T08:13:15.912Z,42.95
2023-05-01T08:16:22.028Z,43.24
2023-05-01T08:19:28.142Z,43.08
2023-05-01T08:22:32.149Z,42.94
2023-05-01T08:25:36.065Z,42.72
2023-05-01T08:28:40.078Z,42.21
2023-05-01T08:31:45.235Z,42.03
2023-05-01T08:34:49.292Z,41.50
2023-05-01T08:37:53.242Z,40.73
2023-05-01T08:40:59.024Z,41.45
2023-05-01T08:44:04.902Z,41.34
2023-05-01T08:47:19.033Z,41.26
2023-05-01T08:50:24.772Z,41.66
2023-05-01T08:53:32.138Z,42.02
2023-05-01T08:56:36.610Z,40.94
2023-05-01T08:59:41.203Z,41.47
2023-05-01T09:02:46.899Z,40.52
2023-05-01T09:05:52.332Z,39.91
2023-05-01T09:08:56.371Z,40.41
2023-05-01T09:12:09.104Z,40.41
2023-05-01T09:15:13.610Z,40.65
2023-05-01T09:18:18.664Z,40.15
2023-05-01T09:21:22.765Z,39.62
2023-05-01T09:24:26.880Z,40.02
2023-05-01T09:27:38.160Z,39.86
2023-05-01T09:30:42.177Z,39.83
2023-05-01T09:34:12.294Z,39.79
2023-05-01T09:37:29.872Z,39.76
2023-05-01T09:40:34.059Z,39.23
2023-05-01T09:43:39.021Z,39.45
2023-05-01T09:46:44.165Z,39.32
2023-05-01T09:49:49.292Z,39.01
2023-05-01T09:52:53.310Z,38.02
2023-05-01T09:56:01.815Z,36.99
2023-05-01T09:59:20.421Z,36.28
2023-05-01T10:02:30.661Z,36.68
2023-05-01T10:05:44.723Z,36.45
2023-05-01T10:08:50.138Z,38.12
2023-05-01T10:11:59.235Z,37.15
2023-05-01T10:15:17.423Z,36.04
2023-05-01T10:18:30.666Z,35.79
2023-05-01T10:21:35.285Z,35.30
2023-05-01T10:24:43.315Z,34.36
2023-05-01T10:27:49.250Z,34.57
2023-05-01T10:30:54.240Z,34.53
2023-05-01T10:33:59.364Z,33.54
2023-05-01T10:37:13.008Z,34.45
2023-05-01T10:40:39.185Z,34.00
2023-05-01T10:43:43.902Z,34.35
2023-05-01T10:46:48.056Z,33.93
2023-05-01T10:50:09.592Z,33.67
2023-05-01T10:53:14.640Z,32.71
2023-05-01T10:56:23.908Z,32.41
2023-05-01T10:59:48.468Z,31.71
2023-05-01T11:02:52.543Z,31.22
2023-05-01T11:06:00.115Z,31.13
2023-05-01T11:09:36.757Z,31.08
2023-05-01T11:12:46.998Z,28.83
2023-05-01T11:15:51.368Z,29.96
2023-05-01T11:18:55.468Z,29.78
2023-05-01T11:22:00.620Z,30.32
2023-05-01T11:25:18.746Z,30.56
2023-05-01T11:28:22.881Z,30.20
2023-05-01T11:31:27.821Z,29.89
2023-05-01T11:34:37.969Z,29.11
2023-05-01T11:37:45.767Z,28.77
2023-05-01T11:40:55.706Z,28.70
2023-05-01T11:43:59.738Z,28.43
2023-05-01T11:47:03.809Z,28.25
2023-05-01T11:50:09.617Z,28.14
2023-05-01T11:53:18.550Z,27.86
2023-05-01T11:56:26.966Z,27.56
2023-05-01T11:59:31.626Z,27.33
2023-05-01T12:02:35.681Z,26.71
2023-05-01T12:05:42.739Z,27.06
2023-05-01T12:08:51.725Z,26.34
2023-05-01T12:11:58.404Z,26.00
2023-05-01T12:15:03.974Z,26.31
2023-05-01T12:18:08.857Z,27.13
2023-05-01T12:21:18.046Z,26.39
2023-05-01T12:24:22.076Z,26.24
2023-05-01T12:27:26.282Z,25.94
2023-05-01T12:30:30.832Z,25.99
2023-05-01T12:33:34.740Z,25.63
2023-05-01T12:36:38.941Z,25.45
2023-05-01T12:39:44.971Z,25.65
2023-05-01T12:42:57.761Z,25.57
2023-05-01T12:46:04.021Z,25.57
2023-05-01T12:49:08.108Z,25.74
2023-05-01T12:52:13.080Z,25.34
2023-05-01T12:55:17.675Z,24.85
2023-05-01T12:58:22.298Z,24.76
2023-05-01T13:01:28.503Z,24.98
2023-05-01T13:04:33.333Z,24.57
2023-05-01T13:07:40.289Z,24.17
2023-05-01T13:10:44.720Z,24.74
2023-05-01T13:13:49.852Z,24.48
2023-05-01T13:16:55.337Z,24.76
2023-05-01T13:20:02.438Z,25.24
2023-05-01T13:23:12.968Z,25.47
2023-05-01T13:26:17.168Z,25.08
2023-05-01T13:29:23.766Z,24.76
2023-05-01T13:32:28.284Z,24.74
2023-05-01T13:35:32.426Z,25.35
2023-05-01T13:38:44.195Z,25.10
2023-05-01T13:41:48.794Z,24.99
2023-05-01T13:44:57.357Z,24.01
2023-05-01T13:48:03.045Z,23.58
2023-05-01T13:51:11.582Z,22.73
2023-05-01T13:54:16.897Z,22.95
2023-05-01T13:57:20.956Z,22.12
2023-05-01T14:00:26.858Z,22.11
2023-05-01T14:03:40.475Z,21.88
2023-05-01T14:06:47.566Z,21.84
2023-05-01T14:09:56.814Z,21.34
2023-05-01T14:13:01.245Z,20.96
2023-05-01T14:16:11.696Z,21.01
2023-05-01T14:19:18.279Z,21.20
2023-05-01T14:22:22.639Z,20.95
2023-05-01T14:25:28.758Z,20.54
2023-05-01T14:28:32.988Z,20.76
2023-05-01T14:31:36.981Z,21.18
2023-05-01T14:34:42.447Z,20.69
2023-05-01T14:37:46.890Z,20.67
2023-05-01T14:40:51.130Z,20.84
2023-05-01T14:43:55.148Z,21.08
2023-05-01T14:46:59.399Z,21.65
2023-05-01T14:50:03.614Z,22.11
2023-05-01T14:53:07.682Z,22.28
2023-05-01T14:56:12.596Z,22.56
2023-05-01T14:59:17.150Z,22.83
2023-05-01T15:02:21.218Z,23.52
2023-05-01T15:05:26.295Z,24.48
2023-05-01T15:08:30.537Z,24.47
2023-05-01T15:11:34.467Z,24.20
2023-05-01T15:14:38.582Z,23.66
2023-05-01T15:17:42.568Z,24.43
2023-05-01T15:20:46.606Z,24.42
2023-05-01T15:23:50.722Z,24.70
2023-05-01T15:26:54.748Z,24.90
2023-05-01T15:29:59.079Z,24.92
2023-05-01T15:33:04.170Z,25.60
2023-05-01T15:36:08.163Z,25.09
2023-05-01T15:39:13.255Z,25.36
2023-05-01T15:42:17.217Z,25.70
2023-05-01T15:45:21.353Z,24.29
2023-05-01T15:48:26.168Z,24.59
2023-05-01T15:51:33.018Z,25.01
2023-05-01T15:54:37.659Z,25.50
2023-05-01T15:57:46.282Z,25.51
2023-05-01T16:00:50.681Z,25.10
2023-05-01T16:03:54.957Z,24.75
2023-05-01T16:06:59.033Z,24.64
2023-05-01T16:10:03.876Z,24.61
2023-05-01T16:13:08.191Z,23.94
2023-05-01T16:16:14.655Z,24.16
2023-05-01T16:19:19.184Z,24.13
2023-05-01T16:22:23.200Z,24.61
2023-05-01T16:25:27.214Z,25.25
2023-05-01T16:28:31.434Z,25.60
2023-05-01T16:31:41.051Z,25.86
2023-05-01T16:34:45.099Z,25.50
2023-05-01T16:37:49.014Z,25.81
2023-05-01T16:40:53.028Z,25.98
2023-05-01T16:44:00.218Z,26.37
2023-05-01T16:47:05.259Z,26.92
2023-05-01T16:50:11.006Z,27.36
2023-05-01T16:53:15.342Z,27.95
2023-05-01T16:56:19.353Z,28.88
2023-05-01T16:59:23.456Z,29.89
2023-05-01T17:02:27.522Z,29.95
2023-05-01T17:05:31.496Z,30.48
2023-05-01T17:08:35.605Z,31.04
2023-05-01T17:11:39.664Z,31.69
2023-05-01T17:14:43.580Z,31.76
2023-05-01T17:17:47.603Z,32.13
2023-05-01T17:20:52.304Z,32.71
2023-05-01T17:23:56.212Z,33.31
2023-05-01T17:27:00.231Z,33.24
2023-05-01T17:30:05.281Z,33.21
2023-05-01T17:33:09.311Z,33.24
2023-05-01T17:36:13.275Z,33.84
2023-05-01T17:39:17.712Z,34.12
2023-05-01T17:42:21.742Z,34.53
2023-05-01T17:45:25.722Z,35.24
2023-05-01T17:48:29.772Z,35.55
2023-05-01T17:51:34.097Z,36.02
2023-05-01T17:54:38.564Z,36.22
2023-05-01T17:57:42.463Z,36.15
2023-05-01T18:00:48.104Z,36.56
2023-05-01T18:03:52.258Z,36.95
2023-05-01T18:06:56.559Z,37.41
2023-05-01T18:10:01.148Z,37.50
2023-05-01T18:13:05.456Z,37.61
2023-05-01T18:16:11.189Z,38.20
2023-05-01T18:19:15.251Z,38.62
2023-05-01T18:22:19.232Z,38.62
2023-05-01T18:25:23.385Z,39.21
2023-05-01T18:28:27.799Z,39.55
2023-05-01T18:31:34.077Z,39.88
2023-05-01T18:34:38.218Z,40.74
2023-05-01T18:37:42.925Z,40.51
2023-05-01T18:40:47.793Z,40.76
2023-05-01T18:43:54.954Z,41.17
2023-05-01T18:47:00.408Z,41.93
2023-05-01T18:50:05.836Z,42.16
2023-05-01T18:53:09.727Z,42.49
2023-05-01T18:56:13.625Z,42.44
2023-05-01T18:59:17.706Z,43.15
2023-05-01T19:02:21.817Z,42.92
2023-05-01T19:05:26.021Z,43.61
2023-05-01T19:08:31.655Z,43.68
2023-05-01T19:11:35.713Z,44.20
2023-05-01T19:14:39.837Z,44.38
2023-05-01T19:17:43.908Z,44.77
2023-05-01T19:20:47.927Z,44.69
2023-05-01T19:23:51.969Z,44.70
2023-05-01T19:26:55.894Z,44.97
2023-05-01T19:30:01.179Z,45.06
2023-05-01T19:33:06.088Z,45.25
2023-05-01T19:36:10.184Z,45.29
2023-05-01T19:39:14.393Z,44.85
2023-05-01T19:42:18.384Z,45.34
2023-05-01T19:45:22.305Z,45.82
2023-05-01T19:48:26.353Z,45.83
2023-05-01T19:51:31.726Z,46.46
2023-05-01T19:54:35.875Z,46.37
2023-05-01T19:57:39.851Z,46.62
2023-05-01T20:00:43.851Z,46.56
2023-05-01T20:03:47.869Z,46.32
2023-05-01T20:06:52.144Z,46.37
2023-05-01T20:09:56.853Z,46.44
2023-05-01T20:13:01.654Z,47.76
2023-05-01T20:16:06.056Z,48.39
2023-05-01T20:19:10.701Z,48.20
2023-05-01T20:22:14.727Z,48.36
2023-05-01T20:25:18.673Z,48.69
2023-05-01T20:28:22.661Z,48.69
2023-05-01T20:31:26.733Z,48.81
2023-05-01T20:34:30.790Z,48.81
2023-05-01T20:37:34.805Z,48.00
2023-05-01T20:40:42.714Z,48.42
2023-05-01T20:43:46.732Z,48.27
2023-05-01T20:46:51.000Z,48.77
2023-05-01T20:49:56.831Z,49.05
2023-05-01T20:53:01.151Z,49.33
2023-05-01T20:56:06.210Z,49.96
2023-05-01T20:59:10.185Z,49.65
2023-05-01T21:02:16.232Z,50.01
2023-05-01T21:05:20.253Z,49.57
2023-05-01T21:08:25.271Z,49.52
2023-05-01T21:11:29.193Z,49.20
2023-05-01T21:14:33.239Z,48.97
2023-05-01T21:17:39.434Z,49.08
2023-05-01T21:20:46.212Z,49.06
2023-05-01T21:23:51.076Z,49.05
2023-05-01T21:26:55.231Z,48.58
2023-05-01T21:30:01.319Z,48.58
2023-05-01T21:33:11.842Z,48.95
2023-05-01T21:36:18.386Z,48.91
2023-05-01T21:39:24.753Z,48.90
2023-05-01T21:42:30.987Z,49.68
2023-05-01T21:45:40.234Z,49.19
2023-05-01T21:48:49.523Z,49.55
2023-05-01T21:51:58.151Z,49.66
2023-05-01T21:55:04.006Z,49.86
2023-05-01T21:58:07.916Z,50.45
2023-05-01T22:01:15.373Z,50.64
2023-05-01T22:04:19.354Z,51.16
2023-05-01T22:07:24.918Z,51.44
2023-05-01T22:10:28.937Z,51.32
2023-05-01T22:13:33.859Z,51.09
2023-05-01T22:16:37.894Z,51.49
2023-05-01T22:19:42.223Z,51.90
2023-05-01T22:22:46.228Z,52.91
2023-05-01T22:25:50.557Z,52.64
2023-05-01T22:28:54.733Z,52.76
2023-05-01T22:31:58.725Z,53.31
2023-05-01T22:35:03.521Z,52.98
2023-05-01T22:38:08.464Z,52.92
2023-05-01T22:41:12.800Z,53.31
2023-05-01T22:44:16.710Z,52.84
2023-05-01T22:47:20.917Z,52.99
2023-05-01T22:50:24.891Z,53.52
2023-05-01T22:53:30.801Z,53.81
2023-05-01T22:56:34.792Z,53.37
2023-05-01T22:59:40.508Z,53.58
2023-05-01T23:02:44.701Z,53.55
2023-05-01T23:05:49.009Z,53.41
2023-05-01T23:08:53.924Z,53.62
2023-05-01T23:11:57.878Z,53.86
2023-05-01T23:15:01.984Z,54.05
2023-05-01T23:18:06.790Z,54.42
2023-05-01T23:21:12.626Z,55.07
2023-05-01T23:24:19.041Z,55.18
2023-05-01T23:27:23.013Z,55.64
2023-05-01T23:30:26.961Z,55.17
2023-05-01T23:33:37.427Z,55.10
2023-05-01T23:36:47.115Z,55.56
2023-05-01T23:39:53.643Z,55.30
2023-05-01T23:42:57.813Z,55.39
2023-05-01T23:46:03.632Z,55.37
2023-05-01T23:49:07.755Z,55.57
2023-05-01T23:52:12.689Z,56.01
2023-05-01T23:55:16.771Z,55.92
2023-05-01T23:58:20.708Z,55.85
